sensor_id;sensor_type;location;lat;lon;timestamp;pressure;altitude;pressure_sealevel;temperature;humidity
8641;BME280;4358;42.100;25.222;2022-11-14T00:00:44;101305.88;;;5.89;100.00
8641;BME280;4358;42.100;25.222;2022-11-14T00:03:11;101304.91;;;5.91;100.00
8641;BME280;4358;42.100;25.222;2022-11-14T00:05:39;101310.19;;;5.91;100.00
8641;BME280;4358;42.100;25.222;2022-11-14T00:08:08;101296.97;;;5.93;100.00
8641;BME280;4358;42.100;25.222;2022-11-14T00:10:39;101303.06;;;5.97;100.00
8641;BME280;4358;42.100;25.222;2022-11-14T00:13:07;101296.91;;;5.96;100.00
8641;BME280;4358;42.100;25.222;2022-11-14T00:15:34;101296.19;;;5.89;100.00
8641;BME280;4358;42.100;25.222;2022-11-14T00:18:01;101297.22;;;5.82;100.00
8641;BME280;4358;42.100;25.222;2022-11-14T00:20:27;101296.47;;;5.77;100.00
8641;BME280;4358;42.100;25.222;2022-11-14T00:22:54;101300.94;;;5.75;100.00
8641;BME280;4358;42.100;25.222;2022-11-14T00:25:21;101298.34;;;5.72;100.00
8641;BME280;4358;42.100;25.222;2022-11-14T00:27:48;101258.63;;;5.46;100.00
8641;BME280;4358;42.100;25.222;2022-11-14T00:30:17;101295.97;;;5.62;100.00
8641;BME280;4358;42.100;25.222;2022-11-14T00:32:43;101286.59;;;5.50;100.00
8641;BME280;4358;42.100;25.222;2022-11-14T00:35:10;101285.84;;;5.45;100.00
8641;BME280;4358;42.100;25.222;2022-11-14T00:37:37;101286.59;;;5.50;100.00
8641;BME280;4358;42.100;25.222;2022-11-14T00:40:05;101284.16;;;5.44;100.00
8641;BME280;4358;42.100;25.222;2022-11-14T00:42:31;101287.81;;;5.37;100.00
8641;BME280;4358;42.100;25.222;2022-11-14T00:44:59;101273.78;;;5.36;100.00
8641;BME280;4358;42.100;25.222;2022-11-14T00:47:27;101272.91;;;5.36;100.00
8641;BME280;4358;42.100;25.222;2022-11-14T00:49:54;101279.84;;;5.40;100.00
8641;BME280;4358;42.100;25.222;2022-11-14T00:52:21;101279.63;;;5.49;100.00
8641;BME280;4358;42.100;25.222;2022-11-14T00:54:48;101279.69;;;5.46;100.00
8641;BME280;4358;42.100;25.222;2022-11-14T00:57:14;101275.66;;;5.31;100.00
8641;BME280;4358;42.100;25.222;2022-11-14T00:59:41;101278.25;;;5.33;100.00
8641;BME280;4358;42.100;25.222;2022-11-14T01:02:08;101272.78;;;5.42;100.00
8641;BME280;4358;42.100;25.222;2022-11-14T01:04:36;101270.03;;;5.46;100.00
8641;BME280;4358;42.100;25.222;2022-11-14T01:07:03;101269.00;;;5.52;100.00
8641;BME280;4358;42.100;25.222;2022-11-14T01:09:30;101271.50;;;5.58;100.00
8641;BME280;4358;42.100;25.222;2022-11-14T01:11:57;101274.00;;;5.63;100.00
8641;BME280;4358;42.100;25.222;2022-11-14T01:14:23;101267.91;;;5.61;100.00
8641;BME280;4358;42.100;25.222;2022-11-14T01:16:50;101274.78;;;5.66;100.00
8641;BME280;4358;42.100;25.222;2022-11-14T01:19:17;101271.97;;;5.74;100.00
8641;BME280;4358;42.100;25.222;2022-11-14T01:21:45;101264.84;;;5.77;100.00
8641;BME280;4358;42.100;25.222;2022-11-14T01:24:12;101257.78;;;5.79;100.00
8641;BME280;4358;42.100;25.222;2022-11-14T01:26:39;101249.84;;;5.81;100.00
8641;BME280;4358;42.100;25.222;2022-11-14T01:29:06;101249.75;;;5.84;100.00
8641;BME280;4358;42.100;25.222;2022-11-14T01:31:33;101246.94;;;5.91;100.00
8641;BME280;4358;42.100;25.222;2022-11-14T01:33:59;101245.00;;;5.98;100.00
8641;BME280;4358;42.100;25.222;2022-11-14T01:36:26;101251.97;;;6.01;100.00
8641;BME280;4358;42.100;25.222;2022-11-14T01:38:54;101237.81;;;6.05;100.00
8641;BME280;4358;42.100;25.222;2022-11-14T01:41:21;101240.56;;;6.00;100.00
8641;BME280;4358;42.100;25.222;2022-11-14T01:43:48;101242.53;;;5.92;100.00
8641;BME280;4358;42.100;25.222;2022-11-14T01:46:18;101239.19;;;5.85;100.00
8641;BME280;4358;42.100;25.222;2022-11-14T01:48:50;101235.06;;;5.75;100.00
8641;BME280;4358;42.100;25.222;2022-11-14T01:51:23;101237.72;;;5.74;100.00
8641;BME280;4358;42.100;25.222;2022-11-14T01:53:56;101249.44;;;5.62;100.00
8641;BME280;4358;42.100;25.222;2022-11-14T01:56:26;101239.88;;;5.60;100.00
8641;BME280;4358;42.100;25.222;2022-11-14T01:58:57;101237.31;;;5.55;100.00
8641;BME280;4358;42.100;25.222;2022-11-14T02:01:27;101234.69;;;5.55;100.00
8641;BME280;4358;42.100;25.222;2022-11-14T02:03:56;101231.38;;;5.48;100.00
8641;BME280;4358;42.100;25.222;2022-11-14T02:06:26;101241.28;;;5.37;100.00
8641;BME280;4358;42.100;25.222;2022-11-14T02:08:55;101237.06;;;5.30;100.00
8641;BME280;4358;42.100;25.222;2022-11-14T02:11:23;101230.94;;;5.30;100.00
8641;BME280;4358;42.100;25.222;2022-11-14T02:13:50;101228.25;;;5.33;100.00
8641;BME280;4358;42.100;25.222;2022-11-14T02:16:17;101231.03;;;5.27;100.00
8641;BME280;4358;42.100;25.222;2022-11-14T02:18:44;101237.31;;;5.20;100.00
8641;BME280;4358;42.100;25.222;2022-11-14T02:21:12;101239.16;;;5.18;100.00
8641;BME280;4358;42.100;25.222;2022-11-14T02:23:39;101232.00;;;5.23;100.00
8641;BME280;4358;42.100;25.222;2022-11-14T02:26:05;101224.09;;;5.23;100.00
8641;BME280;4358;42.100;25.222;2022-11-14T02:28:32;101233.88;;;5.18;100.00
8641;BME280;4358;42.100;25.222;2022-11-14T02:30:59;101227.50;;;5.28;100.00
8641;BME280;4358;42.100;25.222;2022-11-14T02:33:27;101232.53;;;5.37;100.00
8641;BME280;4358;42.100;25.222;2022-11-14T02:35:53;101229.00;;;5.38;100.00
8641;BME280;4358;42.100;25.222;2022-11-14T02:38:22;101228.91;;;5.41;100.00
8641;BME280;4358;42.100;25.222;2022-11-14T02:40:48;101234.94;;;5.44;100.00
8641;BME280;4358;42.100;25.222;2022-11-14T02:43:15;101234.03;;;5.47;100.00
8641;BME280;4358;42.100;25.222;2022-11-14T02:45:42;101234.78;;;5.52;100.00
8641;BME280;4358;42.100;25.222;2022-11-14T02:48:09;101237.31;;;5.55;100.00
8641;BME280;4358;42.100;25.222;2022-11-14T02:50:36;101234.66;;;5.57;100.00
8641;BME280;4358;42.100;25.222;2022-11-14T02:53:02;101231.16;;;5.56;100.00
8641;BME280;4358;42.100;25.222;2022-11-14T02:55:31;101229.25;;;5.63;100.00
8641;BME280;4358;42.100;25.222;2022-11-14T02:57:57;101233.63;;;5.62;100.00
8641;BME280;4358;42.100;25.222;2022-11-14T03:00:24;101235.28;;;5.66;100.00
8641;BME280;4358;42.100;25.222;2022-11-14T03:02:51;101231.00;;;5.62;100.00
8641;BME280;4358;42.100;25.222;2022-11-14T03:05:18;101221.34;;;5.63;100.00
8641;BME280;4358;42.100;25.222;2022-11-14T03:07:45;101226.56;;;5.64;100.00
8641;BME280;4358;42.100;25.222;2022-11-14T03:10:12;101221.31;;;5.64;100.00
8641;BME280;4358;42.100;25.222;2022-11-14T03:12:41;101228.47;;;5.59;100.00
8641;BME280;4358;42.100;25.222;2022-11-14T03:15:08;101233.78;;;5.56;100.00
8641;BME280;4358;42.100;25.222;2022-11-14T03:17:35;101229.38;;;5.57;100.00
8641;BME280;4358;42.100;25.222;2022-11-14T03:20:03;101232.16;;;5.52;100.00
8641;BME280;4358;42.100;25.222;2022-11-14T03:22:30;101223.41;;;5.50;100.00
8641;BME280;4358;42.100;25.222;2022-11-14T03:24:57;101226.84;;;5.53;100.00
8641;BME280;4358;42.100;25.222;2022-11-14T03:27:24;101227.91;;;5.45;100.00
8641;BME280;4358;42.100;25.222;2022-11-14T03:29:52;101234.25;;;5.38;100.00
8641;BME280;4358;42.100;25.222;2022-11-14T03:32:19;101229.91;;;5.35;100.00
8641;BME280;4358;42.100;25.222;2022-11-14T03:34:45;101229.06;;;5.35;100.00
8641;BME280;4358;42.100;25.222;2022-11-14T03:37:12;101231.81;;;5.29;100.00
8641;BME280;4358;42.100;25.222;2022-11-14T03:39:39;101230.19;;;5.25;100.00
8641;BME280;4358;42.100;25.222;2022-11-14T03:42:06;101232.06;;;5.20;100.00
8641;BME280;4358;42.100;25.222;2022-11-14T03:44:34;101232.16;;;5.17;100.00
8641;BME280;4358;42.100;25.222;2022-11-14T03:47:02;101230.53;;;5.09;100.00
8641;BME280;4358;42.100;25.222;2022-11-14T03:49:29;101222.88;;;5.00;100.00
8641;BME280;4358;42.100;25.222;2022-11-14T03:51:55;101222.00;;;5.00;100.00
8641;BME280;4358;42.100;25.222;2022-11-14T03:54:22;101227.28;;;4.98;100.00
8641;BME280;4358;42.100;25.222;2022-11-14T03:56:49;101217.84;;;4.91;100.00
8641;BME280;4358;42.100;25.222;2022-11-14T03:59:16;101223.16;;;4.88;100.00
8641;BME280;4358;42.100;25.222;2022-11-14T04:01:43;101222.38;;;4.85;100.00
8641;BME280;4358;42.100;25.222;2022-11-14T04:04:11;101232.03;;;4.84;100.00
8641;BME280;4358;42.100;25.222;2022-11-14T04:06:39;101230.41;;;4.77;100.00
8641;BME280;4358;42.100;25.222;2022-11-14T04:09:05;101233.16;;;4.73;100.00
8641;BME280;4358;42.100;25.222;2022-11-14T04:11:32;101224.50;;;4.67;100.00
8641;BME280;4358;42.100;25.222;2022-11-14T04:13:59;101227.03;;;4.72;100.00
8641;BME280;4358;42.100;25.222;2022-11-14T04:16:26;101229.59;;;4.75;100.00
8641;BME280;4358;42.100;25.222;2022-11-14T04:18:53;101233.97;;;4.76;100.00
8641;BME280;4358;42.100;25.222;2022-11-14T04:21:21;101231.28;;;4.78;100.00
8641;BME280;4358;42.100;25.222;2022-11-14T04:23:48;101233.97;;;4.76;100.00
8641;BME280;4358;42.100;25.222;2022-11-14T04:26:15;101233.28;;;4.66;100.00
8641;BME280;4358;42.100;25.222;2022-11-14T04:28:42;101232.22;;;4.75;100.00
8641;BME280;4358;42.100;25.222;2022-11-14T04:31:08;101237.38;;;4.80;100.00
8641;BME280;4358;42.100;25.222;2022-11-14T04:33:35;101234.72;;;4.81;100.00
8641;BME280;4358;42.100;25.222;2022-11-14T04:36:03;101233.81;;;4.82;100.00
8641;BME280;4358;42.100;25.222;2022-11-14T04:38:31;101240.88;;;4.80;100.00
8641;BME280;4358;42.100;25.222;2022-11-14T04:40:58;101244.53;;;4.73;100.00
8641;BME280;4358;42.100;25.222;2022-11-14T04:43:24;101241.97;;;4.70;100.00
8641;BME280;4358;42.100;25.222;2022-11-14T04:45:51;101243.75;;;4.69;100.00
8641;BME280;4358;42.100;25.222;2022-11-14T04:48:18;101246.41;;;4.68;100.00
8641;BME280;4358;42.100;25.222;2022-11-14T04:50:45;101249.22;;;4.60;100.00
8641;BME280;4358;42.100;25.222;2022-11-14T04:53:12;101244.88;;;4.58;100.00
8641;BME280;4358;42.100;25.222;2022-11-14T04:55:40;101246.59;;;4.59;100.00
8641;BME280;4358;42.100;25.222;2022-11-14T04:58:09;101253.66;;;4.57;100.00
8641;BME280;4358;42.100;25.222;2022-11-14T05:00:36;101261.63;;;4.52;100.00
8641;BME280;4358;42.100;25.222;2022-11-14T05:03:03;101261.53;;;4.57;100.00
8641;BME280;4358;42.100;25.222;2022-11-14T05:05:30;101259.84;;;4.54;100.00
8641;BME280;4358;42.100;25.222;2022-11-14T05:07:57;101259.69;;;4.62;100.00
8641;BME280;4358;42.100;25.222;2022-11-14T05:10:24;101261.41;;;4.63;100.00
8641;BME280;4358;42.100;25.222;2022-11-14T05:12:53;101263.06;;;4.67;100.00
8641;BME280;4358;42.100;25.222;2022-11-14T05:15:21;101265.78;;;4.64;100.00
8641;BME280;4358;42.100;25.222;2022-11-14T05:17:48;101262.25;;;4.65;100.00
8641;BME280;4358;42.100;25.222;2022-11-14T05:20:15;101259.56;;;4.66;100.00
8641;BME280;4358;42.100;25.222;2022-11-14T05:22:42;101259.56;;;4.68;100.00
8641;BME280;4358;42.100;25.222;2022-11-14T05:25:09;101259.56;;;4.66;100.00
8641;BME280;4358;42.100;25.222;2022-11-14T05:27:36;101259.44;;;4.73;100.00
8641;BME280;4358;42.100;25.222;2022-11-14T05:30:05;101267.38;;;4.71;100.00
8641;BME280;4358;42.100;25.222;2022-11-14T05:32:33;101267.47;;;4.66;100.00
8641;BME280;4358;42.100;25.222;2022-11-14T05:34:59;101270.03;;;4.69;100.00
8641;BME280;4358;42.100;25.222;2022-11-14T05:37:26;101277.88;;;4.71;100.00
8641;BME280;4358;42.100;25.222;2022-11-14T05:39:53;101283.09;;;4.74;100.00
8641;BME280;4358;42.100;25.222;2022-11-14T05:42:20;101275.25;;;4.71;100.00
8641;BME280;4358;42.100;25.222;2022-11-14T05:44:47;101277.00;;;4.72;100.00
8641;BME280;4358;42.100;25.222;2022-11-14T05:47:15;101274.56;;;4.63;100.00
8641;BME280;4358;42.100;25.222;2022-11-14T05:49:41;101280.84;;;4.56;100.00
8641;BME280;4358;42.100;25.222;2022-11-14T05:52:08;101280.91;;;4.53;100.00
8641;BME280;4358;42.100;25.222;2022-11-14T05:54:35;101270.38;;;4.53;100.00
8641;BME280;4358;42.100;25.222;2022-11-14T05:57:02;101268.59;;;4.55;100.00
8641;BME280;4358;42.100;25.222;2022-11-14T05:59:29;101272.16;;;4.51;100.00
8641;BME280;4358;42.100;25.222;2022-11-14T06:01:56;101276.63;;;4.49;100.00
8641;BME280;4358;42.100;25.222;2022-11-14T06:04:24;101274.88;;;4.48;100.00
8641;BME280;4358;42.100;25.222;2022-11-14T06:06:51;101283.63;;;4.50;100.00
8641;BME280;4358;42.100;25.222;2022-11-14T06:09:18;101281.03;;;4.45;100.00
8641;BME280;4358;42.100;25.222;2022-11-14T06:11:45;101279.25;;;4.49;100.00
8641;BME280;4358;42.100;25.222;2022-11-14T06:14:12;101278.25;;;4.54;100.00
8641;BME280;4358;42.100;25.222;2022-11-14T06:16:39;101278.03;;;4.65;100.00
8641;BME280;4358;42.100;25.222;2022-11-14T06:19:05;101282.13;;;4.78;100.00
8641;BME280;4358;42.100;25.222;2022-11-14T06:21:34;101277.28;;;4.98;100.00
8641;BME280;4358;42.100;25.222;2022-11-14T06:24:00;101277.03;;;5.10;100.00
8641;BME280;4358;42.100;25.222;2022-11-14T06:26:29;101280.28;;;5.22;100.00
8641;BME280;4358;42.100;25.222;2022-11-14T06:28:56;101282.69;;;5.31;100.00
8641;BME280;4358;42.100;25.222;2022-11-14T06:31:24;101288.56;;;5.42;100.00
8641;BME280;4358;42.100;25.222;2022-11-14T06:33:51;101282.44;;;5.41;100.00
8641;BME280;4358;42.100;25.222;2022-11-14T06:36:18;101283.06;;;5.51;100.00
8641;BME280;4358;42.100;25.222;2022-11-14T06:38:46;101289.03;;;5.59;100.00
8641;BME280;4358;42.100;25.222;2022-11-14T06:41:15;101288.97;;;5.61;100.00
8641;BME280;4358;42.100;25.222;2022-11-14T06:43:43;101286.41;;;5.59;100.00
8641;BME280;4358;42.100;25.222;2022-11-14T06:46:13;101294.22;;;5.62;100.00
8641;BME280;4358;42.100;25.222;2022-11-14T06:48:41;101291.59;;;5.62;100.00
8641;BME280;4358;42.100;25.222;2022-11-14T06:51:09;101289.94;;;5.58;100.00
8641;BME280;4358;42.100;25.222;2022-11-14T06:53:36;101281.19;;;5.56;100.00
8641;BME280;4358;42.100;25.222;2022-11-14T06:56:06;101286.31;;;5.62;100.00
8641;BME280;4358;42.100;25.222;2022-11-14T06:58:34;101283.53;;;5.68;100.00
8641;BME280;4358;42.100;25.222;2022-11-14T07:01:04;101283.41;;;5.73;100.00
8641;BME280;4358;42.100;25.222;2022-11-14T07:03:31;101276.22;;;5.79;100.00
8641;BME280;4358;42.100;25.222;2022-11-14T07:05:58;101280.47;;;5.85;100.00
8641;BME280;4358;42.100;25.222;2022-11-14T07:08:25;101278.66;;;5.88;100.00
8641;BME280;4358;42.100;25.222;2022-11-14T07:10:52;101276.69;;;5.97;100.00
8641;BME280;4358;42.100;25.222;2022-11-14T07:13:20;101281.56;;;6.12;100.00
8641;BME280;4358;42.100;25.222;2022-11-14T07:15:50;101272.50;;;6.22;100.00
8641;BME280;4358;42.100;25.222;2022-11-14T07:18:17;101266.19;;;6.27;100.00
8641;BME280;4358;42.100;25.222;2022-11-14T07:20:45;101265.06;;;6.36;100.00
8641;BME280;4358;42.100;25.222;2022-11-14T07:23:12;101267.50;;;6.44;100.00
8641;BME280;4358;42.100;25.222;2022-11-14T07:25:40;101261.16;;;6.49;100.00
8641;BME280;4358;42.100;25.222;2022-11-14T07:28:07;101262.72;;;6.56;100.00
8641;BME280;4358;42.100;25.222;2022-11-14T07:30:35;101252.75;;;6.66;100.00
8641;BME280;4358;42.100;25.222;2022-11-14T07:33:02;101255.97;;;6.75;100.00
8641;BME280;4358;42.100;25.222;2022-11-14T07:35:29;101260.06;;;6.86;100.00
8641;BME280;4358;42.100;25.222;2022-11-14T07:38:00;101260.72;;;6.94;100.00
8641;BME280;4358;42.100;25.222;2022-11-14T07:40:27;101263.94;;;7.03;100.00
8641;BME280;4358;42.100;25.222;2022-11-14T07:42:57;101257.72;;;7.06;100.00
8641;BME280;4358;42.100;25.222;2022-11-14T07:45:24;101265.41;;;7.12;100.00
8641;BME280;4358;42.100;25.222;2022-11-14T07:47:54;101261.78;;;7.16;100.00
8641;BME280;4358;42.100;25.222;2022-11-14T07:50:21;101273.69;;;7.01;100.00
8641;BME280;4358;42.100;25.222;2022-11-14T07:52:49;101274.34;;;7.08;100.00
8641;BME280;4358;42.100;25.222;2022-11-14T07:55:17;101267.09;;;7.14;100.00
8641;BME280;4358;42.100;25.222;2022-11-14T07:57:44;101263.16;;;7.28;100.00
8641;BME280;4358;42.100;25.222;2022-11-14T08:00:12;101265.41;;;7.40;100.00
8641;BME280;4358;42.100;25.222;2022-11-14T08:02:39;101271.44;;;7.43;100.00
8641;BME280;4358;42.100;25.222;2022-11-14T08:05:08;101270.16;;;7.56;100.00
8641;BME280;4358;42.100;25.222;2022-11-14T08:07:34;101278.13;;;7.55;100.00
8641;BME280;4358;42.100;25.222;2022-11-14T08:10:01;101279.31;;;7.73;100.00
8641;BME280;4358;42.100;25.222;2022-11-14T08:12:28;101266.31;;;7.65;100.00
8641;BME280;4358;42.100;25.222;2022-11-14T08:14:55;101275.03;;;7.69;100.00
8641;BME280;4358;42.100;25.222;2022-11-14T08:17:22;101280.88;;;7.78;100.00
8641;BME280;4358;42.100;25.222;2022-11-14T08:19:49;101285.19;;;7.81;100.00
8641;BME280;4358;42.100;25.222;2022-11-14T08:22:17;101286.00;;;7.83;100.00
8641;BME280;4358;42.100;25.222;2022-11-14T08:24:44;101276.88;;;7.91;100.00
8641;BME280;4358;42.100;25.222;2022-11-14T08:27:11;101279.81;;;8.08;100.00
8641;BME280;4358;42.100;25.222;2022-11-14T08:29:38;101271.94;;;8.07;100.00
8641;BME280;4358;42.100;25.222;2022-11-14T08:32:05;101264.84;;;8.34;100.00
8641;BME280;4358;42.100;25.222;2022-11-14T08:34:32;101263.31;;;8.52;100.00
8641;BME280;4358;42.100;25.222;2022-11-14T08:37:00;101260.78;;;8.72;100.00
8641;BME280;4358;42.100;25.222;2022-11-14T08:39:28;101263.56;;;8.90;100.00
8641;BME280;4358;42.100;25.222;2022-11-14T08:41:55;101262.69;;;9.13;100.00
8641;BME280;4358;42.100;25.222;2022-11-14T08:44:22;101261.72;;;9.16;100.00
8641;BME280;4358;42.100;25.222;2022-11-14T08:46:49;101265.06;;;9.21;100.00
8641;BME280;4358;42.100;25.222;2022-11-14T08:49:16;101262.22;;;9.25;100.00
8641;BME280;4358;42.100;25.222;2022-11-14T08:51:43;101266.56;;;9.26;100.00
8641;BME280;4358;42.100;25.222;2022-11-14T08:54:10;101258.94;;;9.41;100.00
8641;BME280;4358;42.100;25.222;2022-11-14T08:56:38;101257.25;;;9.60;100.00
8641;BME280;4358;42.100;25.222;2022-11-14T08:59:05;101263.50;;;9.79;100.00
8641;BME280;4358;42.100;25.222;2022-11-14T09:01:32;101250.81;;;9.87;100.00
8641;BME280;4358;42.100;25.222;2022-11-14T09:03:59;101252.78;;;9.82;100.00
8641;BME280;4358;42.100;25.222;2022-11-14T09:06:26;101256.66;;;9.73;100.00
8641;BME280;4358;42.100;25.222;2022-11-14T09:08:53;101242.78;;;9.89;100.00
8641;BME280;4358;42.100;25.222;2022-11-14T09:11:20;101237.75;;;9.83;100.00
8641;BME280;4358;42.100;25.222;2022-11-14T09:13:48;101242.19;;;10.02;100.00
8641;BME280;4358;42.100;25.222;2022-11-14T09:16:15;101240.25;;;10.06;100.00
8641;BME280;4358;42.100;25.222;2022-11-14T09:18:42;101239.53;;;10.02;100.00
8641;BME280;4358;42.100;25.222;2022-11-14T09:21:09;101245.22;;;10.13;100.00
8641;BME280;4358;42.100;25.222;2022-11-14T09:23:37;101235.16;;;10.22;100.00
8641;BME280;4358;42.100;25.222;2022-11-14T09:26:04;101232.72;;;10.17;100.00
8641;BME280;4358;42.100;25.222;2022-11-14T09:28:31;101232.19;;;10.29;100.00
8641;BME280;4358;42.100;25.222;2022-11-14T09:31:00;101218.97;;;10.28;100.00
8641;BME280;4358;42.100;25.222;2022-11-14T09:33:27;101219.28;;;10.40;100.00
8641;BME280;4358;42.100;25.222;2022-11-14T09:35:57;101212.41;;;10.55;100.00
8641;BME280;4358;42.100;25.222;2022-11-14T09:38:25;101211.97;;;10.64;100.00
8641;BME280;4358;42.100;25.222;2022-11-14T09:41:03;101208.59;;;10.79;100.00
8641;BME280;4358;42.100;25.222;2022-11-14T09:43:46;101202.78;;;10.90;100.00
8641;BME280;4358;42.100;25.222;2022-11-14T09:46:19;101194.19;;;11.03;100.00
8641;BME280;4358;42.100;25.222;2022-11-14T09:48:48;101204.81;;;11.21;100.00
8641;BME280;4358;42.100;25.222;2022-11-14T09:51:18;101196.56;;;11.27;100.00
8641;BME280;4358;42.100;25.222;2022-11-14T09:53:50;101196.84;;;11.21;100.00
8641;BME280;4358;42.100;25.222;2022-11-14T09:56:21;101187.94;;;11.22;100.00
8641;BME280;4358;42.100;25.222;2022-11-14T09:58:50;101189.84;;;11.37;100.00
8641;BME280;4358;42.100;25.222;2022-11-14T10:01:29;101183.84;;;11.51;100.00
8641;BME280;4358;42.100;25.222;2022-11-14T10:04:02;101181.50;;;11.62;100.00
8641;BME280;4358;42.100;25.222;2022-11-14T10:06:42;101176.31;;;11.77;100.00
8641;BME280;4358;42.100;25.222;2022-11-14T10:09:29;101171.66;;;11.81;100.00
8641;BME280;4358;42.100;25.222;2022-11-14T10:12:06;101168.44;;;11.92;100.00
8641;BME280;4358;42.100;25.222;2022-11-14T10:14:56;101171.41;;;12.03;100.00
8641;BME280;4358;42.100;25.222;2022-11-14T10:20:33;101162.53;;;12.19;100.00
8641;BME280;4358;42.100;25.222;2022-11-14T10:23:22;101156.34;;;12.19;100.00
8641;BME280;4358;42.100;25.222;2022-11-14T10:25:54;101159.78;;;12.21;100.00
8641;BME280;4358;42.100;25.222;2022-11-14T10:28:47;101145.69;;;12.19;100.00
8641;BME280;4358;42.100;25.222;2022-11-14T10:31:27;101134.09;;;12.20;100.00
8641;BME280;4358;42.100;25.222;2022-11-14T10:34:05;101131.97;;;12.26;100.00
8641;BME280;4358;42.100;25.222;2022-11-14T10:36:52;101135.94;;;12.35;100.00
8641;BME280;4358;42.100;25.222;2022-11-14T10:39:26;101141.28;;;12.51;100.00
8641;BME280;4358;42.100;25.222;2022-11-14T10:41:59;101132.84;;;12.58;100.00
8641;BME280;4358;42.100;25.222;2022-11-14T10:44:31;101131.47;;;12.51;100.00
8641;BME280;4358;42.100;25.222;2022-11-14T10:47:02;101123.94;;;12.59;100.00
8641;BME280;4358;42.100;25.222;2022-11-14T10:49:34;101105.34;;;12.73;100.00
8641;BME280;4358;42.100;25.222;2022-11-14T10:52:05;101120.09;;;12.95;100.00
8641;BME280;4358;42.100;25.222;2022-11-14T10:54:40;101114.09;;;13.07;100.00
8641;BME280;4358;42.100;25.222;2022-11-14T10:57:15;101105.66;;;13.14;100.00
8641;BME280;4358;42.100;25.222;2022-11-14T10:59:42;101105.19;;;12.92;100.00
8641;BME280;4358;42.100;25.222;2022-11-14T11:02:09;101096.97;;;13.11;100.00
8641;BME280;4358;42.100;25.222;2022-11-14T11:04:38;101102.06;;;13.00;100.00
8641;BME280;4358;42.100;25.222;2022-11-14T11:07:23;101095.25;;;12.94;100.00
8641;BME280;4358;42.100;25.222;2022-11-14T11:10:19;101087.78;;;13.01;100.00
8641;BME280;4358;42.100;25.222;2022-11-14T11:13:03;101089.84;;;13.11;100.00
8641;BME280;4358;42.100;25.222;2022-11-14T11:15:31;101077.13;;;13.01;100.00
8641;BME280;4358;42.100;25.222;2022-11-14T11:18:22;101070.72;;;13.19;100.00
8641;BME280;4358;42.100;25.222;2022-11-14T11:21:01;101075.03;;;13.22;100.00
8641;BME280;4358;42.100;25.222;2022-11-14T11:23:28;101065.81;;;13.27;100.00
8641;BME280;4358;42.100;25.222;2022-11-14T11:25:59;101068.34;;;13.14;100.00
8641;BME280;4358;42.100;25.222;2022-11-14T11:28:31;101058.38;;;13.18;100.00
8641;BME280;4358;42.100;25.222;2022-11-14T11:30:59;101061.25;;;13.29;100.00
8641;BME280;4358;42.100;25.222;2022-11-14T11:33:28;101059.47;;;13.44;100.00
8641;BME280;4358;42.100;25.222;2022-11-14T11:35:58;101050.03;;;13.38;100.00
8641;BME280;4358;42.100;25.222;2022-11-14T11:38:27;101039.94;;;13.29;100.00
8641;BME280;4358;42.100;25.222;2022-11-14T11:41:06;101046.88;;;13.32;100.00
8641;BME280;4358;42.100;25.222;2022-11-14T11:43:41;101038.59;;;13.36;100.00
8641;BME280;4358;42.100;25.222;2022-11-14T11:46:15;101036.50;;;13.55;100.00
8641;BME280;4358;42.100;25.222;2022-11-14T11:48:45;101039.88;;;13.73;100.00
8641;BME280;4358;42.100;25.222;2022-11-14T11:51:18;101032.50;;;13.77;100.00
8641;BME280;4358;42.100;25.222;2022-11-14T11:53:56;101025.94;;;13.68;100.00
8641;BME280;4358;42.100;25.222;2022-11-14T11:56:25;101028.91;;;13.64;100.00
8641;BME280;4358;42.100;25.222;2022-11-14T11:59:13;101025.84;;;13.84;100.00
8641;BME280;4358;42.100;25.222;2022-11-14T12:01:45;101030.72;;;13.91;100.00
8641;BME280;4358;42.100;25.222;2022-11-14T12:04:12;101034.44;;;13.89;100.00
8641;BME280;4358;42.100;25.222;2022-11-14T12:06:45;101036.34;;;13.87;100.00
8641;BME280;4358;42.100;25.222;2022-11-14T12:09:18;101025.28;;;13.93;100.00
8641;BME280;4358;42.100;25.222;2022-11-14T12:11:51;101029.47;;;13.97;100.00
8641;BME280;4358;42.100;25.222;2022-11-14T12:14:52;101024.41;;;13.92;100.00
8641;BME280;4358;42.100;25.222;2022-11-14T12:26:20;101005.38;;;13.70;100.00
8641;BME280;4358;42.100;25.222;2022-11-14T12:29:06;100995.00;;;13.80;100.00
8641;BME280;4358;42.100;25.222;2022-11-14T12:31:39;101002.59;;;13.86;100.00
8641;BME280;4358;42.100;25.222;2022-11-14T12:34:14;100994.56;;;14.00;100.00
8641;BME280;4358;42.100;25.222;2022-11-14T12:36:45;100996.66;;;14.09;100.00
8641;BME280;4358;42.100;25.222;2022-11-14T12:39:21;101002.00;;;14.09;100.00
8641;BME280;4358;42.100;25.222;2022-11-14T12:41:59;100998.75;;;14.18;100.00
8641;BME280;4358;42.100;25.222;2022-11-14T12:44:34;101005.59;;;14.22;100.00
8641;BME280;4358;42.100;25.222;2022-11-14T12:47:15;101004.34;;;14.28;100.00
8641;BME280;4358;42.100;25.222;2022-11-14T12:49:57;100992.13;;;14.38;100.00
8641;BME280;4358;42.100;25.222;2022-11-14T12:52:47;101010.00;;;14.50;100.00
8641;BME280;4358;42.100;25.222;2022-11-14T12:55:53;101008.00;;;14.54;100.00
8641;BME280;4358;42.100;25.222;2022-11-14T12:58:46;101002.69;;;14.39;100.00
8641;BME280;4358;42.100;25.222;2022-11-14T13:01:26;100997.34;;;14.39;100.00
8641;BME280;4358;42.100;25.222;2022-11-14T13:04:11;100979.44;;;14.41;100.00
8641;BME280;4358;42.100;25.222;2022-11-14T13:06:47;100995.06;;;14.48;100.00
8641;BME280;4358;42.100;25.222;2022-11-14T13:09:31;100999.06;;;14.40;100.00
8641;BME280;4358;42.100;25.222;2022-11-14T13:12:23;100993.16;;;14.50;100.00
8641;BME280;4358;42.100;25.222;2022-11-14T13:15:22;100991.84;;;14.43;100.00
8641;BME280;4358;42.100;25.222;2022-11-14T13:18:28;100984.56;;;14.45;100.00
8641;BME280;4358;42.100;25.222;2022-11-14T13:21:18;100985.72;;;14.40;100.00
8641;BME280;4358;42.100;25.222;2022-11-14T13:24:03;100992.06;;;14.52;100.00